createdAt,value
2023-05-20T00:02:11.152Z,101854.75
2023-05-20T00:04:38.414Z,101867.66
2023-05-20T00:07:05.698Z,101861.75
2023-05-20T00:09:32.732Z,101871.91
2023-05-20T00:11:59.566Z,101859.81
2023-05-20T00:14:26.533Z,101867.28
2023-05-20T00:16:53.492Z,101871.19
2023-05-20T00:19:20.844Z,101865.78
2023-05-20T00:21:47.792Z,101878.47
2023-05-20T00:24:14.963Z,101866.50
2023-05-20T00:26:41.995Z,101874.88
2023-05-20T00:29:09.005Z,101882.00
2023-05-20T00:31:35.978Z,101877.31
2023-05-20T00:34:02.793Z,101878.84
2023-05-20T00:36:29.778Z,101875.00
2023-05-20T00:38:56.562Z,101878.25
2023-05-20T00:41:23.569Z,101871.91
2023-05-20T00:43:54.763Z,101876.41
2023-05-20T00:46:22.815Z,101874.16
2023-05-20T00:48:50.174Z,101883.66
2023-05-20T00:51:17.619Z,101876.25
2023-05-20T00:53:44.987Z,101867.22
2023-05-20T00:56:12.383Z,101869.59
2023-05-20T00:58:40.281Z,101862.00
2023-05-20T01:01:07.717Z,101860.53
2023-05-20T01:03:35.003Z,101849.53
2023-05-20T01:06:02.734Z,101860.06
2023-05-20T01:08:29.692Z,101860.84
2023-05-20T01:11:06.918Z,101856.03
2023-05-20T01:13:39.374Z,101862.22
2023-05-20T01:16:08.233Z,101858.94
2023-05-20T01:18:36.286Z,101871.28
2023-05-20T01:21:06.242Z,101861.91
2023-05-20T01:23:34.850Z,101869.00
2023-05-20T01:26:01.696Z,101857.91
2023-05-20T01:28:30.446Z,101864.31
2023-05-20T01:31:02.356Z,101857.41
2023-05-20T01:33:30.321Z,101872.69
2023-05-20T01:35:57.762Z,101862.16
2023-05-20T01:38:25.157Z,101862.16
2023-05-20T01:40:52.437Z,101852.44
2023-05-20T01:43:19.346Z,101853.69
2023-05-20T01:45:46.745Z,101844.13
2023-05-20T01:48:13.827Z,101858.09
2023-05-20T01:50:41.478Z,101849.06
2023-05-20T01:53:09.647Z,101854.78
2023-05-20T01:55:36.770Z,101841.53
2023-05-20T01:58:04.697Z,101841.72
2023-05-20T02:00:34.116Z,101838.88
2023-05-20T02:03:01.290Z,101846.75
2023-05-20T02:05:28.139Z,101849.56
2023-05-20T02:07:55.187Z,101845.16
2023-05-20T02:10:23.483Z,101840.66
2023-05-20T02:12:52.474Z,101835.88
2023-05-20T02:15:19.567Z,101837.72
2023-05-20T02:17:47.150Z,101835.06
2023-05-20T02:20:14.965Z,101839.41
2023-05-20T02:22:44.625Z,101837.91
2023-05-20T02:25:14.128Z,101835.88
2023-05-20T02:27:45.590Z,101836.91
2023-05-20T02:30:12.895Z,101829.28
2023-05-20T02:32:39.986Z,101829.13
2023-05-20T02:35:09.492Z,101829.41
2023-05-20T02:37:39.136Z,101833.78
2023-05-20T02:40:07.048Z,101838.19
2023-05-20T02:42:33.782Z,101838.03
2023-05-20T02:45:01.135Z,101831.84
2023-05-20T02:47:27.908Z,101828.03
2023-05-20T02:49:54.813Z,101818.84
2023-05-20T02:52:24.862Z,101824.16
2023-05-20T02:54:52.872Z,101828.59
2023-05-20T02:57:20.694Z,101834.69
2023-05-20T02:59:48.118Z,101830.66
2023-05-20T03:02:14.939Z,101834.50
2023-05-20T03:04:41.874Z,101827.31
2023-05-20T03:07:09.091Z,101832.78
2023-05-20T03:09:36.277Z,101839.97
2023-05-20T03:12:03.233Z,101832.63
2023-05-20T03:14:30.477Z,101825.69
2023-05-20T03:16:57.424Z,101827.91
2023-05-20T03:19:24.439Z,101826.97
2023-05-20T03:21:51.596Z,101832.41
2023-05-20T03:24:18.522Z,101829.41
2023-05-20T03:26:47.351Z,101827.31
2023-05-20T03:29:14.411Z,101829.22
2023-05-20T03:31:41.787Z,101825.25
2023-05-20T03:34:08.853Z,101829.75
2023-05-20T03:36:36.211Z,101825.84
2023-05-20T03:39:04.609Z,101827.00
2023-05-20T03:41:32.879Z,101827.34
2023-05-20T03:43:59.629Z,101827.50
2023-05-20T03:46:27.144Z,101818.84
2023-05-20T03:48:54.212Z,101823.19
2023-05-20T03:51:22.116Z,101827.34
2023-05-20T03:53:50.749Z,101835.34
2023-05-20T03:56:18.310Z,101831.06
2023-05-20T03:58:45.410Z,101829.88
2023-05-20T04:01:15.506Z,101831.97
2023-05-20T04:03:42.727Z,101830.66
2023-05-20T04:06:10.071Z,101826.03
2023-05-20T04:08:37.467Z,101831.13
2023-05-20T04:11:04.416Z,101830.53
2023-05-20T04:13:31.339Z,101832.78
2023-05-20T04:15:58.661Z,101829.69
2023-05-20T04:18:30.264Z,101841.75
2023-05-20T04:20:57.378Z,101833.03
2023-05-20T04:23:27.000Z,101833.22
2023-05-20T04:25:55.270Z,101823.78
2023-05-20T04:28:24.114Z,101834.50
2023-05-20T04:31:04.516Z,101837.44
2023-05-20T04:33:38.078Z,101822.09
2023-05-20T04:36:08.271Z,101823.97
2023-05-20T04:38:36.156Z,101825.03
2023-05-20T04:41:03.174Z,101823.16
2023-05-20T04:43:30.388Z,101814.91
2023-05-20T04:45:58.796Z,101815.78
2023-05-20T04:48:27.518Z,101827.13
2023-05-20T04:50:54.604Z,101825.78
2023-05-20T04:53:24.233Z,101828.41
2023-05-20T04:55:54.797Z,101824.78
2023-05-20T04:58:24.333Z,101819.75
2023-05-20T05:00:52.080Z,101821.41
2023-05-20T05:03:19.160Z,101815.34
2023-05-20T05:05:46.000Z,101808.63
2023-05-20T05:08:12.999Z,101816.19
2023-05-20T05:10:45.415Z,101809.84
2023-05-20T05:13:12.443Z,101808.38
2023-05-20T05:15:39.314Z,101801.88
2023-05-20T05:18:06.401Z,101802.97
2023-05-20T05:20:34.775Z,101807.13
2023-05-20T05:23:01.771Z,101796.88
2023-05-20T05:25:30.074Z,101806.94
2023-05-20T05:27:59.554Z,101804.47
2023-05-20T05:30:27.240Z,101806.13
2023-05-20T05:32:54.463Z,101811.31
2023-05-20T05:35:22.726Z,101816.38
2023-05-20T05:37:49.869Z,101814.28
2023-05-20T05:40:17.144Z,101807.72
2023-05-20T05:42:44.155Z,101813.09
2023-05-20T05:45:11.635Z,101804.03
2023-05-20T05:47:38.805Z,101800.50
2023-05-20T05:50:06.391Z,101802.94
2023-05-20T05:52:34.557Z,101798.13
2023-05-20T05:55:04.024Z,101792.94
2023-05-20T05:57:32.812Z,101797.63
2023-05-20T06:00:01.453Z,101800.28
2023-05-20T06:02:36.594Z,101787.00
2023-05-20T06:05:05.380Z,101798.03
2023-05-20T06:07:32.569Z,101779.38
2023-05-20T06:09:59.645Z,101782.63
2023-05-20T06:12:26.646Z,101791.03
2023-05-20T06:14:53.605Z,101787.22
2023-05-20T06:17:20.914Z,101788.22
2023-05-20T06:19:47.881Z,101781.09
2023-05-20T06:22:16.217Z,101782.38
2023-05-20T06:24:43.345Z,101788.25
2023-05-20T06:27:10.439Z,101780.38
2023-05-20T06:29:37.257Z,101783.00
2023-05-20T06:32:04.905Z,101779.09
2023-05-20T06:34:31.911Z,101772.19
2023-05-20T06:36:59.268Z,101768.72
2023-05-20T06:39:26.092Z,101765.34
2023-05-20T06:41:53.080Z,101770.25
2023-05-20T06:44:28.049Z,101771.34
2023-05-20T06:47:14.968Z,101762.94
2023-05-20T06:49:46.487Z,101760.94
2023-05-20T06:52:14.502Z,101763.13
2023-05-20T06:54:41.875Z,101767.19
2023-05-20T06:57:10.807Z,101758.59
2023-05-20T06:59:38.034Z,101747.69
2023-05-20T07:02:06.685Z,101749.06
2023-05-20T07:04:33.715Z,101752.53
2023-05-20T07:07:00.637Z,101751.47
2023-05-20T07:09:27.651Z,101752.81
2023-05-20T07:11:54.662Z,101753.72
2023-05-20T07:14:21.504Z,101752.47
2023-05-20T07:16:48.480Z,101751.31
2023-05-20T07:19:15.330Z,101758.47
2023-05-20T07:21:42.380Z,101747.13
2023-05-20T07:24:27.446Z,101747.22
2023-05-20T07:26:54.331Z,101740.00
2023-05-20T07:29:21.218Z,101735.03
2023-05-20T07:31:52.421Z,101721.53
2023-05-20T07:34:19.420Z,101722.84
2023-05-20T07:36:46.320Z,101727.47
2023-05-20T07:39:15.293Z,101726.31
2023-05-20T07:41:42.990Z,101728.31
2023-05-20T07:44:11.361Z,101728.41
2023-05-20T07:46:41.934Z,101729.69
2023-05-20T07:49:10.898Z,101723.69
2023-05-20T07:51:39.259Z,101707.53
2023-05-20T07:54:06.733Z,101709.94
2023-05-20T07:56:35.057Z,101709.03
2023-05-20T07:59:12.407Z,101707.38
2023-05-20T08:01:45.109Z,101693.22
2023-05-20T08:04:15.028Z,101707.28
2023-05-20T08:06:43.286Z,101695.72
2023-05-20T08:09:15.400Z,101692.78
2023-05-20T08:11:48.447Z,101711.94
2023-05-20T08:14:15.304Z,101689.91
2023-05-20T08:16:44.619Z,101697.41
2023-05-20T08:19:11.672Z,101705.13
2023-05-20T08:21:39.317Z,101695.13
2023-05-20T08:24:06.683Z,101683.94
2023-05-20T08:26:33.667Z,101689.34
2023-05-20T08:29:00.564Z,101695.34
2023-05-20T08:31:29.271Z,101691.78
2023-05-20T08:33:56.338Z,101694.72
2023-05-20T08:36:23.687Z,101688.50
2023-05-20T08:38:50.707Z,101683.38
2023-05-20T08:41:17.508Z,101692.50
2023-05-20T08:43:47.350Z,101678.19
2023-05-20T08:46:18.089Z,101669.00
2023-05-20T08:48:45.348Z,101678.47
2023-05-20T08:51:12.525Z,101667.00
2023-05-20T08:53:40.129Z,101678.06
2023-05-20T08:56:08.622Z,101672.34
2023-05-20T08:58:35.827Z,101670.72
2023-05-20T09:01:03.162Z,101671.38
2023-05-20T09:03:30.662Z,101685.38
2023-05-20T09:06:08.334Z,101665.59
2023-05-20T09:08:35.553Z,101662.16
2023-05-20T09:11:02.667Z,101665.16
2023-05-20T09:13:32.545Z,101668.50
2023-05-20T09:16:03.173Z,101661.53
2023-05-20T09:18:30.616Z,101667.19
2023-05-20T09:20:57.513Z,101663.16
2023-05-20T09:23:26.168Z,101655.38
2023-05-20T09:25:53.198Z,101652.34
2023-05-20T09:28:49.363Z,101656.72
2023-05-20T09:31:16.794Z,101647.81
2023-05-20T09:33:44.348Z,101656.28
2023-05-20T09:36:11.944Z,101649.69
2023-05-20T09:39:05.400Z,101650.22
2023-05-20T09:41:39.269Z,101650.19
2023-05-20T09:44:09.656Z,101643.00
2023-05-20T09:46:36.762Z,101633.03
2023-05-20T09:49:03.723Z,101633.47
2023-05-20T09:51:32.162Z,101617.53
2023-05-20T09:53:59.024Z,101630.69
2023-05-20T09:56:27.513Z,101628.78
2023-05-20T09:58:58.405Z,101629.28
2023-05-20T10:01:25.694Z,101614.47
2023-05-20T10:03:53.409Z,101621.47
2023-05-20T10:06:29.715Z,101614.00
2023-05-20T10:09:14.880Z,101612.25
2023-05-20T10:12:13.838Z,101624.13
2023-05-20T10:15:14.215Z,101607.47
2023-05-20T10:17:58.465Z,101612.19
2023-05-20T10:20:25.430Z,101609.38
2023-05-20T10:22:59.007Z,101606.44
2023-05-20T10:25:28.020Z,101600.44
2023-05-20T10:28:11.587Z,101592.00
2023-05-20T10:30:45.211Z,101595.78
2023-05-20T10:33:17.963Z,101590.25
2023-05-20T10:35:50.821Z,101591.75
2023-05-20T10:38:18.727Z,101586.59
2023-05-20T10:40:46.402Z,101584.59
2023-05-20T10:43:25.894Z,101597.13
2023-05-20T10:45:54.485Z,101590.91
2023-05-20T10:48:30.926Z,101598.19
2023-05-20T10:50:59.932Z,101592.84
2023-05-20T10:53:34.509Z,101584.25
2023-05-20T10:56:01.833Z,101584.97
2023-05-20T10:58:28.608Z,101574.66
2023-05-20T11:00:56.275Z,101585.34
2023-05-20T11:03:23.738Z,101579.28
2023-05-20T11:05:51.375Z,101573.44
2023-05-20T11:08:28.505Z,101570.88
2023-05-20T11:10:59.400Z,101572.53
2023-05-20T11:13:27.193Z,101558.94
2023-05-20T11:15:54.263Z,101554.38
2023-05-20T11:18:21.438Z,101557.28
2023-05-20T11:20:48.295Z,101564.03
2023-05-20T11:23:15.685Z,101568.91
2023-05-20T11:25:42.847Z,101564.38
2023-05-20T11:28:14.413Z,101563.00
2023-05-20T11:30:43.198Z,101576.06
2023-05-20T11:33:12.785Z,101570.41
2023-05-20T11:35:45.960Z,101568.94
2023-05-20T11:38:13.236Z,101571.28
2023-05-20T11:40:50.435Z,101564.09
2023-05-20T11:43:19.485Z,101559.69
2023-05-20T11:45:48.367Z,101556.44
2023-05-20T11:48:18.133Z,101552.00
2023-05-20T11:50:46.499Z,101549.03
2023-05-20T11:53:20.701Z,101557.31
2023-05-20T11:55:55.764Z,101541.28
2023-05-20T11:58:24.288Z,101538.22
2023-05-20T12:00:56.809Z,101537.50
2023-05-20T12:03:26.719Z,101524.81
2023-05-20T12:05:53.878Z,101537.75
2023-05-20T12:08:20.736Z,101522.22
2023-05-20T12:10:47.807Z,101520.34
2023-05-20T12:13:14.726Z,101514.94
2023-05-20T12:15:41.668Z,101515.81
2023-05-20T12:18:08.554Z,101511.34
2023-05-20T12:20:37.266Z,101506.47
2023-05-20T12:23:04.968Z,101502.91
2023-05-20T12:25:34.756Z,101511.25
2023-05-20T12:28:02.662Z,101507.63
2023-05-20T12:30:29.477Z,101510.03
2023-05-20T12:32:57.008Z,101505.09
2023-05-20T12:35:40.057Z,101513.13
2023-05-20T12:38:07.558Z,101517.84
2023-05-20T12:40:35.619Z,101502.81
2023-05-20T12:43:04.207Z,101508.75
2023-05-20T12:45:31.126Z,101506.59
2023-05-20T12:47:58.172Z,101500.13
2023-05-20T12:50:25.906Z,101507.75
2023-05-20T12:52:53.270Z,101504.38
2023-05-20T12:55:20.026Z,101484.69
2023-05-20T12:57:47.374Z,101493.16
2023-05-20T13:00:15.170Z,101495.13
2023-05-20T13:02:42.751Z,101485.59
2023-05-20T13:05:10.257Z,101499.56
2023-05-20T13:07:37.273Z,101494.03
2023-05-20T13:10:04.411Z,101500.41
2023-05-20T13:12:31.332Z,101490.38
2023-05-20T13:14:58.298Z,101498.09
2023-05-20T13:17:27.929Z,101495.38
2023-05-20T13:19:55.454Z,101486.88
2023-05-20T13:22:22.830Z,101477.00
2023-05-20T13:24:49.847Z,101479.75
2023-05-20T13:27:16.741Z,101474.94
2023-05-20T13:29:43.803Z,101470.06
2023-05-20T13:32:11.628Z,101475.44
2023-05-20T13:34:39.356Z,101485.72
2023-05-20T13:37:07.041Z,101470.31
2023-05-20T13:39:34.364Z,101467.84
2023-05-20T13:42:01.648Z,101479.22
2023-05-20T13:44:29.719Z,101471.66
2023-05-20T13:46:58.031Z,101474.38
2023-05-20T13:49:25.872Z,101467.31
2023-05-20T13:51:52.597Z,101465.81
2023-05-20T13:54:21.482Z,101469.91
2023-05-20T13:56:48.783Z,101458.97
2023-05-20T13:59:16.065Z,101477.59
2023-05-20T14:01:46.597Z,101454.72
2023-05-20T14:04:13.661Z,101454.88
2023-05-20T14:06:40.579Z,101454.38
2023-05-20T14:09:11.035Z,101455.28
2023-05-20T14:11:37.999Z,101447.50
2023-05-20T14:14:04.859Z,101449.09
2023-05-20T14:16:32.325Z,101445.25
2023-05-20T14:18:59.465Z,101438.47
2023-05-20T14:21:26.271Z,101445.84
2023-05-20T14:23:53.247Z,101432.19
2023-05-20T14:26:20.245Z,101440.69
2023-05-20T14:28:47.201Z,101436.28
2023-05-20T14:31:14.257Z,101433.63
2023-05-20T14:33:41.096Z,101438.56
2023-05-20T14:36:08.229Z,101433.13
2023-05-20T14:38:35.079Z,101432.31
2023-05-20T14:41:01.983Z,101427.22
2023-05-20T14:43:28.811Z,101424.31
2023-05-20T14:45:55.842Z,101412.66
2023-05-20T14:48:22.717Z,101412.66
2023-05-20T14:50:49.934Z,101416.41
2023-05-20T14:53:19.432Z,101417.06
2023-05-20T14:55:46.303Z,101414.25
2023-05-20T14:58:13.421Z,101416.72
2023-05-20T15:00:40.698Z,101417.41
2023-05-20T15:03:07.827Z,101410.38
2023-05-20T15:05:34.786Z,101412.25
2023-05-20T15:08:01.579Z,101413.19
2023-05-20T15:10:28.378Z,101409.88
2023-05-20T15:12:55.343Z,101397.06
2023-05-20T15:15:22.241Z,101404.81
2023-05-20T15:17:49.353Z,101398.91
2023-05-20T15:20:16.363Z,101392.66
2023-05-20T15:22:47.758Z,101402.16
2023-05-20T15:25:14.968Z,101407.16
2023-05-20T15:27:42.331Z,101411.31
2023-05-20T15:30:10.152Z,101402.22
2023-05-20T15:32:37.178Z,101400.78
2023-05-20T15:35:04.588Z,101398.69
2023-05-20T15:37:31.727Z,101404.75
2023-05-20T15:39:58.782Z,101387.56
2023-05-20T15:42:25.617Z,101389.53
2023-05-20T15:44:52.582Z,101392.03
2023-05-20T15:47:19.551Z,101407.56
2023-05-20T15:49:46.380Z,101408.59
2023-05-20T15:52:14.230Z,101409.25
2023-05-20T15:54:41.315Z,101395.94
2023-05-20T15:57:08.145Z,101394.13
2023-05-20T15:59:35.778Z,101385.19
2023-05-20T16:02:02.647Z,101403.81
2023-05-20T16:04:29.706Z,101398.41
2023-05-20T16:06:56.735Z,101405.97
2023-05-20T16:09:23.710Z,101403.75
2023-05-20T16:11:50.693Z,101400.97
2023-05-20T16:14:17.538Z,101413.03
2023-05-20T16:16:44.483Z,101411.06
2023-05-20T16:19:11.469Z,101408.03
2023-05-20T16:21:38.290Z,101416.75
2023-05-20T16:24:05.610Z,101411.63
2023-05-20T16:26:32.379Z,101416.59
2023-05-20T16:28:59.335Z,101413.09
2023-05-20T16:31:27.671Z,101417.09
2023-05-20T16:33:55.122Z,101410.34
2023-05-20T16:36:22.108Z,101418.25
2023-05-20T16:38:49.016Z,101415.84
2023-05-20T16:41:16.400Z,101417.16
2023-05-20T16:43:43.249Z,101418.53
2023-05-20T16:46:14.076Z,101415.44
2023-05-20T16:48:41.417Z,101410.28
2023-05-20T16:51:08.204Z,101408.38
2023-05-20T16:53:35.076Z,101411.28
2023-05-20T16:56:01.900Z,101402.16
2023-05-20T16:58:28.624Z,101416.66
2023-05-20T17:00:55.588Z,101405.25
2023-05-20T17:03:22.486Z,101402.22
2023-05-20T17:05:49.241Z,101413.28
2023-05-20T17:08:16.852Z,101416.09
2023-05-20T17:10:43.760Z,101412.97
2023-05-20T17:13:10.643Z,101414.81
2023-05-20T17:15:37.467Z,101409.66
2023-05-20T17:18:04.965Z,101412.38
2023-05-20T17:20:32.584Z,101409.00
2023-05-20T17:22:59.713Z,101424.91
2023-05-20T17:25:26.515Z,101414.81
2023-05-20T17:27:53.417Z,101414.84
2023-05-20T17:30:22.416Z,101412.81
2023-05-20T17:32:52.331Z,101416.47
2023-05-20T17:35:20.961Z,101411.59
2023-05-20T17:37:47.809Z,101402.06
2023-05-20T17:40:14.957Z,101423.03
2023-05-20T17:42:41.805Z,101403.63
2023-05-20T17:45:09.636Z,101423.34
2023-05-20T17:47:36.667Z,101406.72
2023-05-20T17:50:03.869Z,101413.84
2023-05-20T17:52:30.948Z,101409.00
2023-05-20T17:54:57.837Z,101404.19
2023-05-20T17:57:24.591Z,101415.78
2023-05-20T17:59:54.718Z,101412.28
2023-05-20T18:02:21.671Z,101409.72
2023-05-20T18:04:48.689Z,101410.06
2023-05-20T18:07:17.664Z,101404.47
2023-05-20T18:09:44.539Z,101411.81
2023-05-20T18:12:11.508Z,101415.53
2023-05-20T18:14:38.306Z,101407.09
2023-05-20T18:17:05.176Z,101404.72
2023-05-20T18:19:33.838Z,101420.22
2023-05-20T18:22:02.825Z,101418.59
2023-05-20T18:24:29.808Z,101413.88
2023-05-20T18:26:57.302Z,101421.06
2023-05-20T18:29:24.456Z,101424.38
2023-05-20T18:31:51.445Z,101425.47
2023-05-20T18:34:18.245Z,101430.47
2023-05-20T18:36:45.211Z,101429.50
2023-05-20T18:39:14.203Z,101423.72
2023-05-20T18:44:12.568Z,101429.19
2023-05-20T18:46:39.908Z,101433.78
2023-05-20T18:49:06.831Z,101432.69
2023-05-20T18:51:33.910Z,101443.28
2023-05-20T18:54:01.814Z,101441.25
2023-05-20T18:56:28.758Z,101435.50
2023-05-20T18:58:55.522Z,101447.97
2023-05-20T19:01:22.395Z,101448.28
2023-05-20T19:03:49.617Z,101438.25
2023-05-20T19:06:16.440Z,101444.38
2023-05-20T19:08:43.972Z,101440.63
2023-05-20T19:11:11.115Z,101439.34
2023-05-20T19:13:37.916Z,101445.34
2023-05-20T19:16:05.007Z,101444.28
2023-05-20T19:18:32.486Z,101444.91
2023-05-20T19:20:59.758Z,101450.59
2023-05-20T19:23:26.517Z,101446.69
2023-05-20T19:25:53.916Z,101446.09
2023-05-20T19:28:20.819Z,101449.94
2023-05-20T19:30:47.754Z,101454.25
2023-05-20T19:33:14.670Z,101459.91
2023-05-20T19:35:41.650Z,101458.88
2023-05-20T19:38:08.543Z,101457.53
2023-05-20T19:40:35.962Z,101448.38
2023-05-20T19:43:02.769Z,101447.13
2023-05-20T19:45:29.810Z,101458.41
2023-05-20T19:47:57.063Z,101456.75
2023-05-20T19:50:24.461Z,101451.88
2023-05-20T19:52:51.242Z,101454.28
2023-05-20T19:55:18.315Z,101462.78
2023-05-20T19:57:47.739Z,101447.97
2023-05-20T20:00:15.495Z,101457.72
2023-05-20T20:02:42.310Z,101454.50
2023-05-20T20:05:10.071Z,101459.47
2023-05-20T20:07:37.270Z,101451.19
2023-05-20T20:10:04.326Z,101452.66
2023-05-20T20:12:31.043Z,101456.25
2023-05-20T20:14:58.182Z,101457.66
2023-05-20T20:17:27.463Z,101448.91
2023-05-20T20:19:55.324Z,101453.38
2023-05-20T20:22:22.077Z,101457.22
2023-05-20T20:24:50.161Z,101449.75
2023-05-20T20:27:19.141Z,101458.38
2023-05-20T20:29:46.119Z,101447.69
2023-05-20T20:32:12.927Z,101453.25
2023-05-20T20:34:39.810Z,101454.44
2023-05-20T20:37:06.949Z,101464.34
2023-05-20T20:39:34.771Z,101464.38
2023-05-20T20:42:03.005Z,101452.97
2023-05-20T20:44:29.914Z,101459.03
2023-05-20T20:46:58.384Z,101456.78
2023-05-20T20:49:27.666Z,101453.19
2023-05-20T20:51:55.599Z,101461.47
2023-05-20T20:54:22.333Z,101456.16
2023-05-20T20:56:50.138Z,101445.41
2023-05-20T20:59:16.928Z,101458.16
2023-05-20T21:01:44.934Z,101457.94
2023-05-20T21:04:14.491Z,101456.00
2023-05-20T21:06:47.266Z,101457.66
2023-05-20T21:09:14.741Z,101456.16
2023-05-20T21:11:45.953Z,101451.28
2023-05-20T21:14:13.183Z,101455.19
2023-05-20T21:16:40.324Z,101455.72
2023-05-20T21:19:08.058Z,101460.38
2023-05-20T21:21:34.982Z,101465.75
2023-05-20T21:24:01.893Z,101460.56
2023-05-20T21:26:28.582Z,101459.41
2023-05-20T21:28:55.465Z,101449.06
2023-05-20T21:31:22.354Z,101457.41
2023-05-20T21:33:49.328Z,101465.84
2023-05-20T21:36:16.288Z,101461.72
2023-05-20T21:38:43.136Z,101461.72
2023-05-20T21:41:10.164Z,101467.88
2023-05-20T21:43:37.485Z,101469.31
2023-05-20T21:46:04.673Z,101462.19
2023-05-20T21:48:31.495Z,101455.09
2023-05-20T21:50:58.352Z,101458.81
2023-05-20T21:53:25.105Z,101459.97
2023-05-20T21:55:53.703Z,101446.56
2023-05-20T21:58:20.548Z,101454.91
2023-05-20T22:00:50.309Z,101450.00
2023-05-20T22:03:20.268Z,101450.59
2023-05-20T22:05:47.200Z,101449.47
2023-05-20T22:08:17.042Z,101447.97
2023-05-20T22:10:44.383Z,101441.78
2023-05-20T22:13:15.895Z,101441.94
2023-05-20T22:15:43.074Z,101439.19
2023-05-20T22:18:12.476Z,101446.59
2023-05-20T22:20:39.891Z,101439.72
2023-05-20T22:23:06.689Z,101437.41
2023-05-20T22:25:33.651Z,101438.34
2023-05-20T22:28:01.398Z,101439.28
2023-05-20T22:30:28.324Z,101442.06
2023-05-20T22:32:56.282Z,101443.34
2023-05-20T22:35:23.800Z,101447.25
2023-05-20T22:37:51.097Z,101442.75
2023-05-20T22:40:18.024Z,101434.66
2023-05-20T22:42:44.908Z,101437.41
2023-05-20T22:45:11.730Z,101432.88
2023-05-20T22:47:39.058Z,101429.47
2023-05-20T22:50:07.255Z,101427.13
2023-05-20T22:52:39.461Z,101419.03
2023-05-20T22:55:07.076Z,101408.97
2023-05-20T22:57:33.926Z,101413.09
2023-05-20T23:00:01.003Z,101405.72
2023-05-20T23:02:30.496Z,101403.34
2023-05-20T23:04:57.835Z,101408.31
2023-05-20T23:07:24.818Z,101405.56
2023-05-20T23:09:51.634Z,101403.19
2023-05-20T23:12:18.390Z,101400.19
2023-05-20T23:14:45.226Z,101403.97
2023-05-20T23:17:17.162Z,101399.50
2023-05-20T23:19:44.635Z,101385.97
2023-05-20T23:22:11.918Z,101399.19
2023-05-20T23:24:41.496Z,101395.06
2023-05-20T23:27:11.246Z,101398.34
2023-05-20T23:29:42.274Z,101387.03
2023-05-20T23:32:13.861Z,101392.19
2023-05-20T23:34:41.109Z,101392.03
2023-05-20T23:37:08.029Z,101395.38
2023-05-20T23:39:34.887Z,101387.97
2023-05-20T23:42:04.115Z,101389.25
2023-05-20T23:44:31.072Z,101387.88
2023-05-20T23:46:57.910Z,101390.28
2023-05-20T23:49:27.192Z,101388.31
2023-05-20T23:51:54.085Z,101386.09
2023-05-20T23:54:23.924Z,101381.16
2023-05-20T23:56:55.354Z,101382.56
2023-05-20T23:59:22.923Z,101388.06
